CTM4 weather

Toronto (St. Michael's Hospital) Heliport
Toronto, Ontario, Canada

Public forecast

Using degrees Celsius for public forecast. Weather courtesy of forecast.io.

METAR (pilot weather report)

Closest report is Billy Bishop Toronto City Centre Airport, 1.8 nm (3.3 km) SSW. Retrieved 2019/05/26 10:11 UTC (29 minutes ago):

CYTZ 261011Z AUTO 21006KT 200V280 5SM BR CLR 12/12 A2987 RMK SLP118

TAF (pilot weather forecast)

Closest forecast is Billy Bishop Toronto City Centre Airport, 1.8 nm (3.3 km) SSW. Retrieved 2019/05/26 08:46 UTC (2 hours ago):

TAF CYTZ 260738Z 2608/2708 24008KT P6SM FEW020 FEW060 BECMG 2608/2610 30008KT BECMG 2615/2617 18008KT FM261700 18008KT P6SM SCT040 FM262300 VRB03KT P6SM FEW040 BECMG 2623/2701 34008KT RMK FCST BASED ON AUTO OBS. NXT FCST BY 261400Z